createdAt,value
2024-05-09T00:00:31.093Z,95480.91
2024-05-09T00:03:03.339Z,95484.28
2024-05-09T00:05:30.363Z,95480.09
2024-05-09T00:07:57.252Z,95481.41
2024-05-09T00:10:32.671Z,95485.38
2024-05-09T00:13:02.621Z,95478.53
2024-05-09T00:15:29.459Z,95473.50
2024-05-09T00:17:56.316Z,95483.53
2024-05-09T00:20:28.578Z,95479.00
2024-05-09T00:23:03.091Z,95477.44
2024-05-09T00:25:32.590Z,95481.66
2024-05-09T00:28:02.344Z,95477.22
2024-05-09T00:30:34.369Z,95485.38
2024-05-09T00:33:03.786Z,95483.28
2024-05-09T00:35:31.193Z,95481.97
2024-05-09T00:37:58.074Z,95478.53
2024-05-09T00:40:35.007Z,95474.59
2024-05-09T00:43:05.975Z,95473.25
2024-05-09T00:45:32.761Z,95468.78
2024-05-09T00:47:59.766Z,95469.03
2024-05-09T00:50:35.332Z,95470.63
2024-05-09T00:53:03.723Z,95468.97
2024-05-09T00:55:30.503Z,95473.00
2024-05-09T00:57:57.657Z,95465.06
2024-05-09T01:00:31.589Z,95464.00
2024-05-09T01:03:05.779Z,95462.72
2024-05-09T01:05:33.325Z,95471.16
2024-05-09T01:08:00.165Z,95465.63
2024-05-09T01:10:33.697Z,95470.34
2024-05-09T01:13:02.076Z,95472.22
2024-05-09T01:15:28.852Z,95481.69
2024-05-09T01:17:56.073Z,95478.88
2024-05-09T01:20:32.043Z,95472.59
2024-05-09T01:23:07.169Z,95486.25
2024-05-09T01:25:34.060Z,95483.50
2024-05-09T01:28:00.825Z,95478.19
2024-05-09T01:30:33.997Z,95485.84
2024-05-09T01:33:03.563Z,95476.97
2024-05-09T01:35:30.719Z,95484.28
2024-05-09T01:37:57.561Z,95479.06
2024-05-09T01:40:33.546Z,95483.28
2024-05-09T01:43:04.532Z,95482.75
2024-05-09T01:45:31.410Z,95474.59
2024-05-09T01:47:58.527Z,95482.63
2024-05-09T01:50:36.688Z,95479.53
2024-05-09T01:53:07.418Z,95476.16
2024-05-09T01:55:34.302Z,95469.56
2024-05-09T01:58:01.098Z,95482.44
2024-05-09T02:00:36.955Z,95484.00
2024-05-09T02:03:07.783Z,95479.25
2024-05-09T02:05:35.171Z,95475.53
2024-05-09T02:08:02.480Z,95469.66
2024-05-09T02:10:32.721Z,95464.09
2024-05-09T02:13:00.820Z,95470.66
2024-05-09T02:15:28.010Z,95471.44
2024-05-09T02:17:55.542Z,95466.13
2024-05-09T02:20:30.412Z,95457.72
2024-05-09T02:23:03.179Z,95474.63
2024-05-09T02:25:30.488Z,95472.09
2024-05-09T02:27:57.336Z,95470.16
2024-05-09T02:30:31.091Z,95473.06
2024-05-09T02:33:05.937Z,95470.72
2024-05-09T02:35:33.006Z,95469.22
2024-05-09T02:38:00.009Z,95468.59
2024-05-09T02:40:35.574Z,95464.88
2024-05-09T02:43:04.886Z,95467.50
2024-05-09T02:45:31.648Z,95478.38
2024-05-09T02:47:58.727Z,95465.31
2024-05-09T02:50:33.797Z,95468.41
2024-05-09T02:53:05.294Z,95472.47
2024-05-09T02:55:32.185Z,95471.84
2024-05-09T02:57:58.955Z,95464.22
2024-05-09T03:00:34.580Z,95470.59
2024-05-09T03:03:06.145Z,95472.00
2024-05-09T03:05:33.389Z,95469.00
2024-05-09T03:08:00.495Z,95471.94
2024-05-09T03:10:29.170Z,95474.44
2024-05-09T03:13:01.693Z,95470.13
2024-05-09T03:15:28.419Z,95467.34
2024-05-09T03:17:55.285Z,95472.56
2024-05-09T03:20:27.587Z,95476.72
2024-05-09T03:22:59.454Z,95467.13
2024-05-09T03:25:26.232Z,95481.69
2024-05-09T03:27:53.369Z,95478.31
2024-05-09T03:30:29.595Z,95479.03
2024-05-09T03:33:03.861Z,95479.81
2024-05-09T03:35:31.159Z,95481.59
2024-05-09T03:37:58.532Z,95473.66
2024-05-09T03:40:29.015Z,95481.25
2024-05-09T03:42:57.846Z,95479.66
2024-05-09T03:45:25.033Z,95486.44
2024-05-09T03:47:52.887Z,95483.66
2024-05-09T03:50:26.336Z,95481.53
2024-05-09T03:53:00.815Z,95473.47
2024-05-09T03:55:28.241Z,95486.31
2024-05-09T03:57:55.443Z,95481.44
2024-05-09T04:00:30.823Z,95482.72
2024-05-09T04:03:04.139Z,95484.91
2024-05-09T04:05:31.522Z,95499.19
2024-05-09T04:07:58.520Z,95481.38
2024-05-09T04:10:32.333Z,95488.41
2024-05-09T04:13:00.791Z,95487.22
2024-05-09T04:15:27.615Z,95485.88
2024-05-09T04:17:54.573Z,95481.72
2024-05-09T04:20:32.502Z,95481.13
2024-05-09T04:23:04.772Z,95481.44
2024-05-09T04:25:31.587Z,95487.72
2024-05-09T04:27:58.373Z,95498.97
2024-05-09T04:30:34.497Z,95493.44
2024-05-09T04:33:05.887Z,95493.59
2024-05-09T04:35:33.038Z,95495.19
2024-05-09T04:37:59.831Z,95495.53
2024-05-09T04:40:33.092Z,95494.09
2024-05-09T04:43:02.682Z,95493.66
2024-05-09T04:45:29.428Z,95502.59
2024-05-09T04:47:56.435Z,95500.22
2024-05-09T04:50:30.337Z,95498.78
2024-05-09T04:53:03.541Z,95496.97
2024-05-09T04:55:30.561Z,95499.31
2024-05-09T04:57:57.741Z,95499.31
2024-05-09T05:00:32.708Z,95493.53
2024-05-09T05:03:04.028Z,95497.19
2024-05-09T05:05:30.882Z,95503.75
2024-05-09T05:07:57.767Z,95508.00
2024-05-09T05:10:33.023Z,95501.13
2024-05-09T05:13:02.422Z,95501.97
2024-05-09T05:15:29.172Z,95504.03
2024-05-09T05:17:56.479Z,95501.28
2024-05-09T05:20:30.700Z,95505.69
2024-05-09T05:23:00.265Z,95503.44
2024-05-09T05:25:27.107Z,95510.75
2024-05-09T05:27:53.819Z,95513.50
2024-05-09T05:30:25.268Z,95514.03
2024-05-09T05:32:56.134Z,95508.56
2024-05-09T05:35:23.224Z,95517.94
2024-05-09T05:37:50.061Z,95517.09
2024-05-09T05:40:28.160Z,95518.44
2024-05-09T05:43:02.287Z,95524.00
2024-05-09T05:45:29.042Z,95519.81
2024-05-09T05:47:56.087Z,95523.25
2024-05-09T05:50:28.033Z,95524.06
2024-05-09T05:53:02.212Z,95523.31
2024-05-09T05:55:29.034Z,95517.00
2024-05-09T05:57:55.821Z,95513.84
2024-05-09T06:00:29.770Z,95508.31
2024-05-09T06:03:04.722Z,95505.16
2024-05-09T06:05:32.895Z,95503.28
2024-05-09T06:08:00.428Z,95506.72
2024-05-09T06:10:37.010Z,95510.09
2024-05-09T06:13:06.430Z,95507.53
2024-05-09T06:15:33.196Z,95505.75
2024-05-09T06:18:00.237Z,95514.19
2024-05-09T06:20:34.921Z,95515.06
2024-05-09T06:23:04.230Z,95519.41
2024-05-09T06:25:31.142Z,95511.59
2024-05-09T06:28:25.114Z,95518.13
2024-05-09T06:30:48.110Z,95514.97
2024-05-09T06:33:16.364Z,95516.88
2024-05-09T06:35:43.869Z,95520.50
2024-05-09T06:38:11.276Z,95513.59
2024-05-09T06:40:40.183Z,95515.31
2024-05-09T06:43:08.715Z,95513.63
2024-05-09T06:45:35.469Z,95519.84
2024-05-09T06:48:02.587Z,95525.19
2024-05-09T06:50:36.834Z,95524.50
2024-05-09T06:53:05.066Z,95527.44
2024-05-09T06:55:31.907Z,95523.06
2024-05-09T06:57:58.694Z,95525.47
2024-05-09T07:00:34.418Z,95522.53
2024-05-09T07:03:05.980Z,95520.09
2024-05-09T07:05:33.033Z,95522.81
2024-05-09T07:08:00.406Z,95521.94
2024-05-09T07:10:33.101Z,95520.28
2024-05-09T07:13:02.281Z,95522.25
2024-05-09T07:15:29.168Z,95522.19
2024-05-09T07:17:56.198Z,95522.28
2024-05-09T07:20:31.999Z,95515.00
2024-05-09T07:23:01.686Z,95520.09
2024-05-09T07:25:28.794Z,95525.81
2024-05-09T07:27:55.822Z,95525.00
2024-05-09T07:30:27.724Z,95525.72
2024-05-09T07:33:00.525Z,95519.81
2024-05-09T07:35:27.795Z,95520.56
2024-05-09T07:37:54.805Z,95514.06
2024-05-09T07:40:29.013Z,95517.81
2024-05-09T07:43:02.340Z,95509.19
2024-05-09T07:45:45.245Z,95514.84
2024-05-09T07:49:45.395Z,95510.50
2024-05-09T07:53:40.795Z,95511.09
2024-05-09T07:56:12.158Z,95509.09
2024-05-09T07:58:39.250Z,95500.53
2024-05-09T08:01:06.563Z,95504.78
2024-05-09T08:03:33.647Z,95504.81
2024-05-09T08:06:00.604Z,95496.22
2024-05-09T08:08:27.455Z,95501.19
2024-05-09T08:10:54.683Z,95503.50
2024-05-09T08:13:22.095Z,95500.88
2024-05-09T08:15:49.398Z,95501.31
2024-05-09T08:18:16.797Z,95501.31
2024-05-09T08:20:43.924Z,95489.03
2024-05-09T08:23:11.107Z,95490.88
2024-05-09T08:25:37.951Z,95488.19
2024-05-09T08:28:04.824Z,95487.47
2024-05-09T08:30:36.798Z,95495.47
2024-05-09T08:33:05.120Z,95488.09
2024-05-09T08:35:32.394Z,95486.22
2024-05-09T08:37:59.222Z,95478.28
2024-05-09T08:40:33.414Z,95475.06
2024-05-09T08:43:03.085Z,95482.84
2024-05-09T08:45:30.378Z,95472.66
2024-05-09T08:47:57.278Z,95475.56
2024-05-09T08:50:31.999Z,95476.31
2024-05-09T08:53:04.876Z,95478.16
2024-05-09T08:55:31.822Z,95479.84
2024-05-09T08:57:58.562Z,95478.47
2024-05-09T09:00:33.886Z,95479.34
2024-05-09T09:03:03.927Z,95477.03
2024-05-09T09:05:30.942Z,95478.97
2024-05-09T09:07:57.954Z,95477.88
2024-05-09T09:10:31.057Z,95480.94
2024-05-09T09:12:59.109Z,95474.84
2024-05-09T09:15:25.821Z,95486.44
2024-05-09T09:17:52.798Z,95478.00
2024-05-09T09:20:26.326Z,95481.81
2024-05-09T09:23:00.310Z,95482.72
2024-05-09T09:25:27.466Z,95481.22
2024-05-09T09:27:54.722Z,95485.47
2024-05-09T09:30:34.084Z,95482.44
2024-05-09T09:33:05.131Z,95483.28
2024-05-09T09:35:32.805Z,95483.94
2024-05-09T09:38:00.124Z,95480.41
2024-05-09T09:40:32.936Z,95472.66
2024-05-09T09:43:02.002Z,95469.03
2024-05-09T09:45:29.255Z,95479.59
2024-05-09T09:47:56.545Z,95480.19
2024-05-09T09:50:31.579Z,95481.19
2024-05-09T09:53:01.670Z,95473.94
2024-05-09T09:55:29.019Z,95468.56
2024-05-09T09:57:56.486Z,95471.50
2024-05-09T10:00:29.931Z,95470.31
2024-05-09T10:03:00.076Z,95474.38
2024-05-09T10:05:27.651Z,95469.53
2024-05-09T10:07:55.011Z,95475.31
2024-05-09T10:10:29.922Z,95467.28
2024-05-09T10:13:00.031Z,95467.72
2024-05-09T10:15:27.750Z,95467.88
2024-05-09T10:17:55.158Z,95471.91
2024-05-09T10:20:27.916Z,95471.06
2024-05-09T10:22:58.115Z,95469.94
2024-05-09T10:25:25.524Z,95476.81
2024-05-09T10:27:52.835Z,95476.22
2024-05-09T10:30:25.971Z,95470.66
2024-05-09T10:32:57.493Z,95471.34
2024-05-09T10:35:24.832Z,95474.16
2024-05-09T10:37:52.140Z,95468.81
2024-05-09T10:40:25.876Z,95465.16
2024-05-09T10:42:56.585Z,95464.97
2024-05-09T10:45:23.874Z,95463.91
2024-05-09T10:47:51.149Z,95464.47
2024-05-09T10:50:25.491Z,95459.22
2024-05-09T10:52:56.362Z,95462.00
2024-05-09T10:55:24.154Z,95455.34
2024-05-09T10:57:50.924Z,95456.38
2024-05-09T11:00:27.206Z,95445.19
2024-05-09T11:02:57.525Z,95438.38
2024-05-09T11:05:24.604Z,95443.88
2024-05-09T11:07:51.454Z,95441.88
2024-05-09T11:10:25.058Z,95442.84
2024-05-09T11:12:58.304Z,95442.19
2024-05-09T11:15:25.140Z,95446.75
2024-05-09T11:17:51.987Z,95437.66
2024-05-09T11:20:26.459Z,95428.59
2024-05-09T11:22:56.451Z,95434.41
2024-05-09T11:25:23.382Z,95441.84
2024-05-09T11:27:50.192Z,95429.81
2024-05-09T11:30:24.196Z,95430.03
2024-05-09T11:32:56.954Z,95430.53
2024-05-09T11:35:23.887Z,95422.63
2024-05-09T11:37:50.649Z,95417.91
2024-05-09T11:40:25.168Z,95428.50
2024-05-09T11:42:55.354Z,95423.69
2024-05-09T11:45:22.198Z,95418.03
2024-05-09T11:47:49.205Z,95421.66
2024-05-09T11:50:22.703Z,95416.47
2024-05-09T11:52:56.491Z,95415.19
2024-05-09T11:55:26.815Z,95412.06
2024-05-09T11:57:55.177Z,95412.22
2024-05-09T12:00:29.708Z,95407.66
2024-05-09T12:03:03.768Z,95411.47
2024-05-09T12:05:30.663Z,95407.72
2024-05-09T12:07:57.501Z,95401.06
2024-05-09T12:10:32.522Z,95403.19
2024-05-09T12:13:02.391Z,95403.22
2024-05-09T12:15:29.522Z,95400.28
2024-05-09T12:17:58.924Z,95396.91
2024-05-09T12:20:35.433Z,95398.13
2024-05-09T12:23:05.302Z,95393.50
2024-05-09T12:25:32.248Z,95392.91
2024-05-09T12:27:59.101Z,95390.09
2024-05-09T12:30:35.188Z,95394.16
2024-05-09T12:33:05.793Z,95386.28
2024-05-09T12:35:33.012Z,95385.44
2024-05-09T12:38:00.010Z,95380.31
2024-05-09T12:40:35.132Z,95385.63
2024-05-09T12:43:05.085Z,95381.09
2024-05-09T12:45:32.228Z,95377.59
2024-05-09T12:47:59.619Z,95386.66
2024-05-09T12:50:32.407Z,95378.44
2024-05-09T12:53:01.339Z,95369.16
2024-05-09T12:55:29.958Z,95369.00
2024-05-09T12:57:58.750Z,95369.50
2024-05-09T13:00:31.498Z,95373.56
2024-05-09T13:03:01.313Z,95375.97
2024-05-09T13:05:29.226Z,95369.00
2024-05-09T13:07:57.333Z,95370.44
2024-05-09T13:10:31.654Z,95368.13
2024-05-09T13:13:01.144Z,95366.13
2024-05-09T13:15:28.997Z,95364.59
2024-05-09T13:17:58.293Z,95366.38
2024-05-09T13:20:32.896Z,95366.84
2024-05-09T13:23:02.464Z,95361.88
2024-05-09T13:25:29.723Z,95361.31
2024-05-09T13:27:57.168Z,95350.59
2024-05-09T13:30:30.181Z,95354.63
2024-05-09T13:33:06.639Z,95350.91
2024-05-09T13:35:35.673Z,95346.47
2024-05-09T13:38:03.730Z,95343.09
2024-05-09T13:40:34.668Z,95336.25
2024-05-09T13:43:03.679Z,95331.47
2024-05-09T13:45:31.061Z,95335.06
2024-05-09T13:47:58.483Z,95330.88
2024-05-09T13:50:32.822Z,95330.75
2024-05-09T13:53:06.797Z,95334.50
2024-05-09T13:55:35.532Z,95321.56
2024-05-09T13:58:02.986Z,95320.44
2024-05-09T14:00:42.169Z,95318.41
2024-05-09T14:03:14.651Z,95317.56
2024-05-09T14:05:42.291Z,95317.63
2024-05-09T14:08:09.671Z,95319.75
2024-05-09T14:10:37.122Z,95318.41
2024-05-09T14:13:04.400Z,95319.28
2024-05-09T14:15:31.756Z,95316.06
2024-05-09T14:17:59.033Z,95318.88
2024-05-09T14:20:31.189Z,95311.25
2024-05-09T14:23:00.079Z,95318.91
2024-05-09T14:25:43.444Z,95315.75
2024-05-09T14:28:17.436Z,95310.53
2024-05-09T14:30:44.444Z,95309.94
2024-05-09T14:33:12.228Z,95311.22
2024-05-09T14:35:51.955Z,95307.59
2024-05-09T14:38:20.786Z,95307.81
2024-05-09T14:40:47.719Z,95304.13
2024-05-09T14:43:15.254Z,95308.09
2024-05-09T14:45:43.136Z,95318.56
2024-05-09T14:48:10.597Z,95298.00
2024-05-09T14:50:39.525Z,95307.00
2024-05-09T14:53:07.895Z,95290.00
2024-05-09T14:55:34.999Z,95295.94
2024-05-09T14:58:02.168Z,95294.88
2024-05-09T15:00:33.481Z,95287.25
2024-05-09T15:03:03.270Z,95295.09
2024-05-09T15:05:30.453Z,95287.16
2024-05-09T15:07:57.398Z,95280.97
2024-05-09T15:10:33.172Z,95281.03
2024-05-09T15:13:02.358Z,95288.94
2024-05-09T15:15:29.306Z,95287.00
2024-05-09T15:17:56.250Z,95280.09
2024-05-09T15:20:30.963Z,95280.31
2024-05-09T15:23:02.095Z,95280.81
2024-05-09T15:25:29.091Z,95270.53
2024-05-09T15:27:56.336Z,95277.50
2024-05-09T15:30:30.905Z,95269.16
2024-05-09T15:33:01.117Z,95267.16
2024-05-09T15:35:28.631Z,95264.34
2024-05-09T15:37:55.863Z,95264.47
2024-05-09T15:40:31.651Z,95265.06
2024-05-09T15:43:05.763Z,95264.13
2024-05-09T15:45:32.938Z,95261.56
2024-05-09T15:48:00.136Z,95267.53
2024-05-09T15:50:35.985Z,95261.31
2024-05-09T15:53:07.219Z,95267.09
2024-05-09T15:55:37.418Z,95262.19
2024-05-09T15:58:04.938Z,95260.81
2024-05-09T16:00:38.107Z,95269.00
2024-05-09T16:03:08.354Z,95259.97
2024-05-09T16:05:35.442Z,95261.81
2024-05-09T16:08:02.314Z,95267.38
2024-05-09T16:10:32.765Z,95260.06
2024-05-09T16:13:01.459Z,95252.94
2024-05-09T16:15:28.632Z,95255.63
2024-05-09T16:17:55.653Z,95252.75
2024-05-09T16:20:33.946Z,95254.97
2024-05-09T16:23:06.057Z,95246.81
2024-05-09T16:25:32.940Z,95252.53
2024-05-09T16:27:59.885Z,95251.84
2024-05-09T16:30:33.901Z,95248.16
2024-05-09T16:33:03.037Z,95254.94
2024-05-09T16:35:30.331Z,95257.00
2024-05-09T16:37:57.526Z,95249.19
2024-05-09T16:40:33.875Z,95245.22
2024-05-09T16:43:06.514Z,95244.81
2024-05-09T16:45:33.815Z,95258.06
2024-05-09T16:48:00.962Z,95249.78
2024-05-09T16:50:32.612Z,95245.50
2024-05-09T16:53:01.389Z,95250.94
2024-05-09T16:55:28.368Z,95251.25
2024-05-09T16:57:55.246Z,95253.91
2024-05-09T17:00:31.364Z,95266.06
2024-05-09T17:03:06.772Z,95258.75
2024-05-09T17:05:34.292Z,95257.22
2024-05-09T17:08:01.507Z,95259.31
2024-05-09T17:10:32.949Z,95258.09
2024-05-09T17:13:02.018Z,95259.22
2024-05-09T17:15:29.003Z,95258.56
2024-05-09T17:17:55.851Z,95261.66
2024-05-09T17:20:29.767Z,95272.22
2024-05-09T17:23:00.938Z,95266.75
2024-05-09T17:25:28.064Z,95261.28
2024-05-09T17:27:54.875Z,95268.41
2024-05-09T17:30:29.014Z,95265.00
2024-05-09T17:33:01.974Z,95264.78
2024-05-09T17:35:29.036Z,95258.63
2024-05-09T17:37:56.168Z,95260.75
2024-05-09T17:40:30.965Z,95266.97
2024-05-09T17:43:01.950Z,95259.91
2024-05-09T17:45:29.327Z,95257.28
2024-05-09T17:47:56.834Z,95258.06
2024-05-09T17:50:30.881Z,95252.28
2024-05-09T17:53:02.675Z,95253.72
2024-05-09T17:55:30.196Z,95265.25
2024-05-09T17:57:58.761Z,95268.06
2024-05-09T18:00:36.450Z,95261.66
2024-05-09T18:03:07.400Z,95263.81
2024-05-09T18:05:35.569Z,95269.88
2024-05-09T18:08:03.612Z,95280.41
2024-05-09T18:10:36.652Z,95275.47
2024-05-09T18:13:07.073Z,95279.09
2024-05-09T18:15:34.878Z,95285.66
2024-05-09T18:18:02.847Z,95284.66
2024-05-09T18:20:39.342Z,95288.28
2024-05-09T18:23:10.873Z,95282.19
2024-05-09T18:25:38.184Z,95284.50
2024-05-09T18:28:05.425Z,95283.09
2024-05-09T18:30:35.537Z,95276.94
2024-05-09T18:33:05.341Z,95270.50
2024-05-09T18:35:33.901Z,95277.81
2024-05-09T18:38:01.090Z,95277.78
2024-05-09T18:40:34.044Z,95279.13
2024-05-09T18:43:04.209Z,95279.63
2024-05-09T18:45:32.001Z,95279.16
2024-05-09T18:47:59.516Z,95272.19
2024-05-09T18:50:34.383Z,95273.59
2024-05-09T18:53:04.672Z,95269.75
2024-05-09T18:55:31.431Z,95273.22
2024-05-09T18:57:58.270Z,95270.41
2024-05-09T19:00:33.517Z,95274.41
2024-05-09T19:03:04.103Z,95276.66
2024-05-09T19:05:31.259Z,95278.28
2024-05-09T19:08:01.360Z,95274.63
2024-05-09T19:10:33.824Z,95276.25
2024-05-09T19:13:05.746Z,95271.91
2024-05-09T19:15:36.311Z,95277.13
2024-05-09T19:18:03.210Z,95281.00
2024-05-09T19:20:34.286Z,95290.41
2024-05-09T19:23:02.686Z,95298.25
2024-05-09T19:28:17.326Z,95285.47
2024-05-09T19:28:29.508Z,95294.41
2024-05-09T19:30:56.597Z,95297.22
2024-05-09T19:33:23.471Z,95305.53
2024-05-09T19:35:50.301Z,95304.22
2024-05-09T19:38:17.185Z,95303.19
2024-05-09T19:40:44.092Z,95309.28
2024-05-09T19:43:10.859Z,95308.06
2024-05-09T19:45:37.748Z,95306.03
2024-05-09T19:48:05.114Z,95305.53
2024-05-09T19:50:40.924Z,95310.22
2024-05-09T19:53:11.334Z,95310.22
2024-05-09T19:55:38.509Z,95321.16
2024-05-09T19:58:06.530Z,95323.69
2024-05-09T20:00:36.540Z,95317.25
2024-05-09T20:03:05.271Z,95317.31
2024-05-09T20:05:32.450Z,95320.13
2024-05-09T20:07:59.423Z,95323.25
2024-05-09T20:10:31.488Z,95327.78
2024-05-09T20:13:00.547Z,95325.03
2024-05-09T20:15:27.440Z,95328.66
2024-05-09T20:17:55.297Z,95329.94
2024-05-09T20:22:52.015Z,95334.28
2024-05-09T20:25:18.890Z,95337.94
2024-05-09T20:27:45.889Z,95338.97
2024-05-09T20:30:17.246Z,95337.84
2024-05-09T20:32:51.687Z,95347.41
2024-05-09T20:35:18.502Z,95337.97
2024-05-09T20:37:45.291Z,95340.44
2024-05-09T20:40:18.429Z,95334.91
2024-05-09T20:42:52.237Z,95340.22
2024-05-09T20:45:18.968Z,95342.19
2024-05-09T20:47:45.722Z,95341.88
2024-05-09T20:50:23.049Z,95349.72
2024-05-09T20:52:55.794Z,95348.72
2024-05-09T20:55:31.877Z,95343.53
2024-05-09T20:57:59.114Z,95342.53
2024-05-09T21:00:35.142Z,95343.31
2024-05-09T21:03:07.640Z,95342.28
2024-05-09T21:05:35.627Z,95344.91
2024-05-09T21:08:03.178Z,95343.28
2024-05-09T21:10:33.210Z,95339.31
2024-05-09T21:13:02.976Z,95346.22
2024-05-09T21:15:30.629Z,95345.19
2024-05-09T21:17:57.512Z,95341.91
2024-05-09T21:20:30.439Z,95340.34
2024-05-09T21:22:59.013Z,95340.06
2024-05-09T21:25:25.894Z,95347.53
2024-05-09T21:27:52.974Z,95348.75
2024-05-09T21:30:31.293Z,95347.38
2024-05-09T21:33:05.840Z,95341.34
2024-05-09T21:35:32.878Z,95332.22
2024-05-09T21:37:59.687Z,95324.78
2024-05-09T21:40:33.470Z,95331.06
2024-05-09T21:43:02.530Z,95323.69
2024-05-09T21:45:29.389Z,95328.09
2024-05-09T21:47:56.323Z,95324.50
2024-05-09T21:50:28.768Z,95322.22
2024-05-09T21:53:03.414Z,95324.97
2024-05-09T21:55:30.290Z,95326.97
2024-05-09T21:57:57.220Z,95334.16
2024-05-09T22:00:32.120Z,95323.63
2024-05-09T22:03:03.731Z,95321.38
2024-05-09T22:05:30.910Z,95326.06
2024-05-09T22:07:57.795Z,95329.00
2024-05-09T22:10:30.871Z,95332.50
2024-05-09T22:13:01.895Z,95332.44
2024-05-09T22:15:29.340Z,95336.28
2024-05-09T22:17:57.506Z,95335.00
2024-05-09T22:20:34.231Z,95333.44
2024-05-09T22:23:05.116Z,95318.66
2024-05-09T22:25:33.007Z,95326.84
2024-05-09T22:28:00.891Z,95335.78
2024-05-09T22:30:35.664Z,95329.56
2024-05-09T22:33:06.251Z,95332.84
2024-05-09T22:35:33.678Z,95337.25
2024-05-09T22:38:00.911Z,95333.84
2024-05-09T22:40:38.603Z,95340.25
2024-05-09T22:43:13.994Z,95344.03
2024-05-09T22:45:41.376Z,95337.91
2024-05-09T22:48:09.236Z,95327.75
2024-05-09T22:50:36.630Z,95334.84
2024-05-09T22:53:03.868Z,95332.13
2024-05-09T22:55:31.014Z,95341.09
2024-05-09T22:57:58.213Z,95333.63
2024-05-09T23:00:31.429Z,95337.38
2024-05-09T23:03:00.120Z,95333.84
2024-05-09T23:05:27.566Z,95328.81
2024-05-09T23:07:54.950Z,95330.28
2024-05-09T23:10:30.807Z,95332.84
2024-05-09T23:13:02.007Z,95329.50
2024-05-09T23:15:28.882Z,95340.56
2024-05-09T23:17:55.829Z,95340.00
2024-05-09T23:20:33.255Z,95341.34
2024-05-09T23:23:04.698Z,95348.53
2024-05-09T23:25:31.423Z,95347.31
2024-05-09T23:27:58.253Z,95345.19
2024-05-09T23:30:33.958Z,95343.66
2024-05-09T23:33:05.105Z,95344.28
2024-05-09T23:35:32.010Z,95341.50
2024-05-09T23:37:58.727Z,95338.78
2024-05-09T23:40:36.735Z,95333.72
2024-05-09T23:43:06.967Z,95332.06
2024-05-09T23:45:34.069Z,95330.34
2024-05-09T23:48:01.290Z,95333.56
2024-05-09T23:50:34.518Z,95332.34
2024-05-09T23:53:04.482Z,95329.97
2024-05-09T23:55:31.924Z,95327.84
2024-05-09T23:57:59.567Z,95328.50
